createdAt,value
2018-01-14T00:02:22.829Z,6.67
2018-01-14T00:04:50.598Z,6.61
2018-01-14T00:07:18.003Z,6.54
2018-01-14T00:09:45.422Z,6.54
2018-01-14T00:12:12.837Z,6.43
2018-01-14T00:14:40.282Z,6.47
2018-01-14T00:17:07.709Z,6.52
2018-01-14T00:19:35.124Z,6.51
2018-01-14T00:22:02.553Z,6.50
2018-01-14T00:24:29.969Z,6.55
2018-01-14T00:26:57.389Z,6.50
2018-01-14T00:29:24.804Z,6.50
2018-01-14T00:31:52.237Z,6.54
2018-01-14T00:34:19.651Z,6.56
2018-01-14T00:36:47.064Z,6.55
2018-01-14T00:39:14.495Z,6.59
2018-01-14T00:41:41.901Z,6.63
2018-01-14T00:44:09.317Z,6.62
2018-01-14T00:46:36.734Z,6.67
2018-01-14T00:49:04.165Z,6.65
2018-01-14T00:51:31.589Z,6.58
2018-01-14T00:53:59.088Z,6.52
2018-01-14T00:56:26.493Z,6.54
2018-01-14T00:58:53.909Z,6.42
2018-01-14T01:01:21.345Z,6.49
2018-01-14T01:03:48.753Z,6.39
2018-01-14T01:06:16.170Z,6.41
2018-01-14T01:08:43.608Z,6.43
2018-01-14T01:11:11.066Z,6.39
2018-01-14T01:13:38.494Z,6.36
2018-01-14T01:16:05.920Z,6.33
2018-01-14T01:18:33.329Z,6.26
2018-01-14T01:21:00.733Z,6.31
2018-01-14T01:23:28.153Z,6.28
2018-01-14T01:25:55.556Z,6.22
2018-01-14T01:28:22.977Z,6.22
2018-01-14T01:30:50.381Z,6.19
2018-01-14T01:33:17.809Z,6.19
2018-01-14T01:35:45.241Z,6.08
2018-01-14T01:38:12.704Z,6.09
2018-01-14T01:40:40.111Z,6.06
2018-01-14T01:43:07.537Z,6.04
2018-01-14T01:45:34.953Z,6.01
2018-01-14T01:48:02.365Z,6.03
2018-01-14T01:50:29.796Z,6.03
2018-01-14T01:52:57.205Z,6.10
2018-01-14T01:55:24.620Z,6.11
2018-01-14T01:57:52.048Z,6.07
2018-01-14T02:00:19.485Z,5.97
2018-01-14T02:02:46.893Z,5.95
2018-01-14T02:05:14.308Z,6.03
2018-01-14T02:07:41.981Z,6.08
2018-01-14T02:10:09.417Z,6.08
2018-01-14T02:12:36.833Z,6.06
2018-01-14T02:15:04.272Z,6.07
2018-01-14T02:17:31.750Z,6.10
2018-01-14T02:19:59.183Z,6.00
2018-01-14T02:22:26.585Z,6.03
2018-01-14T02:24:54.009Z,6.06
2018-01-14T02:27:21.754Z,6.02
2018-01-14T02:29:49.183Z,6.08
2018-01-14T02:32:16.589Z,6.06
2018-01-14T02:34:44.045Z,5.97
2018-01-14T02:37:11.449Z,5.87
2018-01-14T02:39:38.891Z,5.87
2018-01-14T02:42:06.295Z,5.94
2018-01-14T02:44:33.736Z,5.94
2018-01-14T02:47:01.157Z,5.73
2018-01-14T02:49:28.579Z,5.73
2018-01-14T02:51:55.998Z,5.80
2018-01-14T02:54:23.409Z,5.87
2018-01-14T02:56:50.857Z,5.85
2018-01-14T02:59:18.269Z,5.87
2018-01-14T03:01:45.701Z,5.88
2018-01-14T03:04:13.125Z,5.89
2018-01-14T03:06:40.574Z,5.87
2018-01-14T03:09:07.998Z,5.88
2018-01-14T03:11:35.473Z,5.81
2018-01-14T03:14:02.881Z,5.69
2018-01-14T03:16:30.260Z,5.67
2018-01-14T03:18:57.678Z,5.68
2018-01-14T03:21:25.093Z,5.68
2018-01-14T03:23:52.521Z,5.72
2018-01-14T03:26:19.947Z,5.76
2018-01-14T03:28:47.349Z,5.67
2018-01-14T03:31:14.777Z,5.66
2018-01-14T03:33:42.182Z,5.71
2018-01-14T03:36:09.641Z,5.59
2018-01-14T03:38:37.046Z,5.62
2018-01-14T03:41:04.465Z,5.62
2018-01-14T03:43:31.883Z,5.63
2018-01-14T03:45:59.314Z,5.67
2018-01-14T03:48:26.725Z,5.66
2018-01-14T03:50:54.142Z,5.62
2018-01-14T03:53:21.562Z,5.54
2018-01-14T03:55:48.969Z,5.46
2018-01-14T03:58:16.381Z,5.56
2018-01-14T04:00:43.793Z,5.58
2018-01-14T04:03:11.210Z,5.58
2018-01-14T04:05:38.625Z,5.63
2018-01-14T04:08:06.042Z,5.68
2018-01-14T04:10:33.460Z,5.66
2018-01-14T04:13:00.889Z,5.71
2018-01-14T04:15:28.302Z,5.69
2018-01-14T04:17:55.713Z,5.57
2018-01-14T04:20:23.129Z,5.59
2018-01-14T04:22:50.542Z,5.48
2018-01-14T04:25:17.958Z,5.54
2018-01-14T04:27:45.381Z,5.55
2018-01-14T04:30:12.798Z,5.59
2018-01-14T04:32:40.477Z,5.61
2018-01-14T04:35:07.921Z,5.66
2018-01-14T04:37:35.348Z,5.52
2018-01-14T04:40:02.780Z,5.59
2018-01-14T04:42:30.181Z,5.51
2018-01-14T04:44:57.600Z,5.58
2018-01-14T04:47:25.013Z,5.52
2018-01-14T04:49:52.432Z,5.43
2018-01-14T04:52:19.894Z,5.46
2018-01-14T04:54:47.265Z,5.44
2018-01-14T04:57:14.678Z,5.53
2018-01-14T04:59:42.093Z,5.58
2018-01-14T05:02:09.509Z,5.56
2018-01-14T05:04:36.925Z,5.42
2018-01-14T05:07:04.342Z,5.43
2018-01-14T05:09:31.757Z,5.50
2018-01-14T05:11:59.170Z,5.51
2018-01-14T05:14:26.590Z,5.44
2018-01-14T05:16:54.006Z,5.51
2018-01-14T05:19:21.449Z,5.52
2018-01-14T05:21:48.865Z,5.47
2018-01-14T05:24:16.282Z,5.49
2018-01-14T05:26:43.693Z,5.49
2018-01-14T05:29:12.017Z,5.49
2018-01-14T05:31:39.461Z,5.52
2018-01-14T05:34:06.885Z,5.37
2018-01-14T05:36:34.310Z,5.41
2018-01-14T05:39:01.717Z,5.37
2018-01-14T05:41:29.125Z,5.25
2018-01-14T05:43:56.565Z,5.36
2018-01-14T05:46:24.010Z,5.46
2018-01-14T05:48:51.441Z,5.44
2018-01-14T05:51:18.857Z,5.43
2018-01-14T05:53:46.285Z,5.42
2018-01-14T05:56:13.730Z,5.42
2018-01-14T05:58:41.137Z,5.41
2018-01-14T06:01:08.558Z,5.41
2018-01-14T06:03:35.981Z,5.41
2018-01-14T06:06:03.398Z,5.38
2018-01-14T06:08:30.893Z,5.29
2018-01-14T06:10:58.301Z,5.32
2018-01-14T06:13:25.709Z,5.32
2018-01-14T06:15:53.133Z,5.27
2018-01-14T06:18:20.576Z,5.34
2018-01-14T06:20:48.003Z,5.34
2018-01-14T06:23:15.417Z,5.33
2018-01-14T06:25:42.825Z,5.37
2018-01-14T06:28:10.270Z,5.22
2018-01-14T06:30:37.678Z,5.26
2018-01-14T06:33:05.124Z,5.25
2018-01-14T06:35:32.521Z,5.21
2018-01-14T06:37:59.958Z,5.15
2018-01-14T06:40:27.390Z,5.17
2018-01-14T06:42:54.806Z,5.14
2018-01-14T06:45:22.262Z,5.09
2018-01-14T06:47:59.538Z,5.14
2018-01-14T06:50:26.977Z,4.99
2018-01-14T06:52:54.401Z,4.94
2018-01-14T06:55:21.821Z,4.97
2018-01-14T06:57:49.253Z,4.92
2018-01-14T07:00:16.717Z,4.91
2018-01-14T07:02:44.160Z,4.86
2018-01-14T07:05:11.573Z,4.81
2018-01-14T07:07:38.977Z,4.78
2018-01-14T07:10:06.397Z,4.60
2018-01-14T07:12:33.813Z,4.58
2018-01-14T07:15:01.244Z,4.50
2018-01-14T07:17:28.661Z,4.39
2018-01-14T07:20:02.643Z,4.31
2018-01-14T07:22:30.145Z,4.23
2018-01-14T07:24:57.586Z,4.22
2018-01-14T07:27:25.017Z,4.22
2018-01-14T07:29:52.453Z,4.23
2018-01-14T07:32:19.875Z,4.24
2018-01-14T07:34:47.312Z,4.16
2018-01-14T07:37:14.718Z,4.11
2018-01-14T07:39:42.166Z,4.14
2018-01-14T07:42:09.593Z,4.16
2018-01-14T07:44:37.032Z,4.07
2018-01-14T07:47:04.452Z,4.02
2018-01-14T07:49:31.877Z,4.02
2018-01-14T07:51:59.301Z,4.03
2018-01-14T07:54:26.733Z,3.97
2018-01-14T07:56:54.177Z,4.00
2018-01-14T07:59:25.178Z,3.99
2018-01-14T08:01:52.617Z,3.91
2018-01-14T08:04:20.031Z,3.84
2018-01-14T08:06:47.461Z,3.84
2018-01-14T08:09:15.921Z,3.82
2018-01-14T08:11:43.346Z,3.89
2018-01-14T08:14:10.765Z,3.89
2018-01-14T08:16:38.265Z,3.95
2018-01-14T08:19:05.686Z,3.95
2018-01-14T08:21:33.117Z,3.91
2018-01-14T08:24:00.569Z,3.98
2018-01-14T08:26:27.973Z,3.93
2018-01-14T08:28:55.438Z,3.99
2018-01-14T08:31:22.849Z,4.02
2018-01-14T08:33:50.276Z,4.02
2018-01-14T08:36:17.729Z,3.98
2018-01-14T08:38:45.158Z,4.11
2018-01-14T08:41:12.581Z,4.14
2018-01-14T08:43:40.003Z,4.26
2018-01-14T08:46:07.443Z,4.26
2018-01-14T08:48:34.862Z,4.35
2018-01-14T08:51:02.286Z,4.31
2018-01-14T08:53:29.713Z,4.34
2018-01-14T08:55:57.142Z,4.37
2018-01-14T08:58:24.571Z,4.45
2018-01-14T09:00:52.006Z,4.52
2018-01-14T09:03:19.425Z,4.58
2018-01-14T09:05:46.864Z,4.64
2018-01-14T09:08:14.278Z,4.75
2018-01-14T09:10:41.734Z,4.82
2018-01-14T09:13:09.149Z,4.87
2018-01-14T09:15:36.594Z,5.00
2018-01-14T09:18:04.026Z,5.15
2018-01-14T09:23:30.609Z,5.43
2018-01-14T09:25:58.028Z,5.55
2018-01-14T09:28:25.430Z,5.62
2018-01-14T09:31:02.817Z,5.73
2018-01-14T09:33:30.225Z,5.77
2018-01-14T09:35:57.641Z,5.92
2018-01-14T09:38:25.167Z,5.97
2018-01-14T09:40:53.305Z,6.04
2018-01-14T09:43:20.719Z,6.12
2018-01-14T09:45:48.129Z,6.27
2018-01-14T09:48:15.554Z,6.37
2018-01-14T09:50:42.969Z,6.41
2018-01-14T09:53:10.390Z,6.22
2018-01-14T09:55:44.347Z,6.26
2018-01-14T09:58:11.807Z,6.36
2018-01-14T10:00:39.237Z,6.39
2018-01-14T10:03:06.669Z,6.51
2018-01-14T10:05:34.069Z,6.63
2018-01-14T10:08:01.489Z,6.64
2018-01-14T10:10:28.921Z,6.61
2018-01-14T10:12:56.381Z,6.75
2018-01-14T10:15:23.876Z,6.86
2018-01-14T10:17:51.268Z,6.84
2018-01-14T10:20:19.777Z,7.11
2018-01-14T10:22:47.196Z,7.32
2018-01-14T10:25:14.613Z,7.44
2018-01-14T10:27:42.037Z,7.68
2018-01-14T10:30:09.460Z,8.04
2018-01-14T10:32:36.876Z,8.01
2018-01-14T10:35:12.509Z,8.23
2018-01-14T10:37:39.953Z,8.42
2018-01-14T10:40:07.368Z,8.30
2018-01-14T10:42:41.108Z,8.27
2018-01-14T10:45:09.599Z,8.37
2018-01-14T10:47:37.058Z,8.21
2018-01-14T10:50:12.781Z,8.30
2018-01-14T10:52:40.204Z,7.83
2018-01-14T10:55:10.372Z,7.97
2018-01-14T10:57:44.168Z,7.82
2018-01-14T11:00:11.602Z,7.91
2018-01-14T11:02:39.040Z,7.82
2018-01-14T11:05:06.491Z,7.99
2018-01-14T11:07:34.410Z,7.71
2018-01-14T11:10:01.881Z,7.88
2018-01-14T11:12:30.117Z,7.98
2018-01-14T11:14:57.556Z,8.26
2018-01-14T11:17:24.984Z,8.58
2018-01-14T11:19:52.421Z,8.52
2018-01-14T11:22:19.824Z,8.37
2018-01-14T11:24:47.294Z,8.39
2018-01-14T11:27:14.705Z,8.72
2018-01-14T11:29:52.033Z,8.99
2018-01-14T11:32:19.437Z,8.97
2018-01-14T11:34:46.889Z,9.01
2018-01-14T11:37:14.310Z,8.95
2018-01-14T11:39:41.720Z,8.89
2018-01-14T11:42:09.173Z,8.74
2018-01-14T11:44:36.645Z,8.74
2018-01-14T11:47:04.072Z,8.44
2018-01-14T11:49:31.480Z,8.26
2018-01-14T11:51:58.947Z,8.03
2018-01-14T11:54:26.346Z,8.00
2018-01-14T11:56:53.752Z,8.14
2018-01-14T11:59:21.199Z,8.15
2018-01-14T12:01:48.624Z,8.12
2018-01-14T12:04:16.037Z,7.99
2018-01-14T12:06:43.449Z,7.84
2018-01-14T12:09:10.885Z,7.54
2018-01-14T12:11:38.345Z,7.46
2018-01-14T12:14:05.782Z,7.48
2018-01-14T12:16:33.196Z,7.33
2018-01-14T12:19:01.629Z,7.39
2018-01-14T12:21:29.061Z,7.42
2018-01-14T12:23:56.481Z,7.34
2018-01-14T12:26:23.885Z,7.30
2018-01-14T12:28:51.330Z,7.15
2018-01-14T12:31:18.812Z,7.11
2018-01-14T12:37:05.284Z,6.70
2018-01-14T12:39:32.716Z,6.70
2018-01-14T12:42:00.154Z,6.75
2018-01-14T12:44:27.597Z,6.77
2018-01-14T12:46:55.030Z,6.88
2018-01-14T12:49:22.465Z,6.89
2018-01-14T12:51:49.929Z,6.83
2018-01-14T12:54:17.371Z,6.71
2018-01-14T12:56:44.800Z,7.01
2018-01-14T12:59:12.213Z,7.16
2018-01-14T13:01:39.624Z,7.29
2018-01-14T13:04:07.064Z,7.23
2018-01-14T13:06:34.489Z,7.32
2018-01-14T13:09:01.898Z,7.26
2018-01-14T13:11:29.369Z,7.23
2018-01-14T13:13:56.758Z,7.04
2018-01-14T13:16:24.180Z,6.93
2018-01-14T13:18:51.605Z,6.80
2018-01-14T13:21:19.049Z,6.87
2018-01-14T13:23:46.472Z,6.95
2018-01-14T13:26:13.881Z,7.06
2018-01-14T13:28:42.157Z,7.16
2018-01-14T13:31:09.592Z,7.37
2018-01-14T13:33:36.988Z,7.53
2018-01-14T13:36:04.401Z,7.65
2018-01-14T13:38:31.816Z,7.74
2018-01-14T13:40:59.664Z,7.79
2018-01-14T13:43:27.109Z,7.54
2018-01-14T13:45:54.514Z,7.42
2018-01-14T13:48:21.930Z,7.38
2018-01-14T13:50:49.341Z,7.43
2018-01-14T13:53:16.760Z,7.65
2018-01-14T13:55:44.180Z,7.56
2018-01-14T13:58:11.596Z,7.22
2018-01-14T14:00:39.009Z,7.17
2018-01-14T14:03:06.442Z,7.07
2018-01-14T14:05:33.862Z,7.01
2018-01-14T14:08:01.266Z,6.98
2018-01-14T14:10:28.685Z,7.02
2018-01-14T14:12:56.093Z,7.02
2018-01-14T14:15:23.501Z,7.02
2018-01-14T14:17:50.922Z,7.17
2018-01-14T14:20:18.348Z,7.16
2018-01-14T14:22:45.770Z,7.24
2018-01-14T14:25:13.187Z,7.28
2018-01-14T14:27:40.656Z,7.27
2018-01-14T14:30:08.107Z,7.19
2018-01-14T14:32:35.508Z,7.24
2018-01-14T14:35:02.950Z,7.22
2018-01-14T14:37:30.339Z,7.06
2018-01-14T14:39:57.756Z,7.06
2018-01-14T14:42:25.193Z,6.87
2018-01-14T14:44:52.619Z,6.88
2018-01-14T14:47:20.023Z,6.87
2018-01-14T14:49:47.441Z,6.87
2018-01-14T14:52:14.845Z,6.82
2018-01-14T14:54:42.269Z,6.78
2018-01-14T14:57:09.716Z,6.63
2018-01-14T14:59:37.120Z,6.59
2018-01-14T15:02:04.557Z,6.55
2018-01-14T15:04:32.026Z,6.31
2018-01-14T15:06:59.876Z,6.29
2018-01-14T15:09:27.331Z,6.26
2018-01-14T15:11:54.882Z,6.10
2018-01-14T15:14:31.349Z,6.07
2018-01-14T15:16:59.132Z,5.97
2018-01-14T15:19:26.556Z,5.91
2018-01-14T15:21:54.084Z,5.82
2018-01-14T15:24:21.554Z,5.71
2018-01-14T15:26:49.026Z,5.68
2018-01-14T15:29:16.464Z,5.66
2018-01-14T15:31:43.932Z,5.49
2018-01-14T15:34:11.468Z,5.47
2018-01-14T15:36:38.955Z,5.30
2018-01-14T15:39:06.392Z,5.29
2018-01-14T15:41:33.805Z,5.23
2018-01-14T15:44:01.560Z,5.20
2018-01-14T15:46:28.981Z,5.12
2018-01-14T15:48:56.405Z,5.06
2018-01-14T15:51:23.845Z,5.04
2018-01-14T15:53:51.275Z,4.95
2018-01-14T15:56:18.719Z,4.84
2018-01-14T15:58:46.128Z,4.89
2018-01-14T16:01:13.561Z,4.82
2018-01-14T16:03:40.997Z,4.77
2018-01-14T16:06:08.420Z,4.73
2018-01-14T16:08:35.841Z,4.67
2018-01-14T16:11:03.261Z,4.68
2018-01-14T16:13:38.366Z,4.67
2018-01-14T16:16:18.093Z,4.55
2018-01-14T16:18:46.041Z,4.50
2018-01-14T16:21:15.448Z,4.57
2018-01-14T16:23:42.858Z,4.53
2018-01-14T16:26:10.341Z,4.53
2018-01-14T16:28:37.812Z,4.44
2018-01-14T16:31:05.235Z,4.48
2018-01-14T16:33:34.519Z,4.43
2018-01-14T16:53:17.930Z,4.25
2018-01-14T16:55:45.429Z,4.24
2018-01-14T16:58:12.874Z,4.25
2018-01-14T17:00:40.317Z,4.19
2018-01-14T17:03:07.746Z,4.25
2018-01-14T17:05:35.887Z,4.28
2018-01-14T17:08:04.372Z,4.25
2018-01-14T17:10:32.080Z,4.16
2018-01-14T17:13:00.240Z,4.17
2018-01-14T17:15:28.576Z,4.12
2018-01-14T17:17:56.885Z,4.05
2018-01-14T17:20:24.884Z,4.05
2018-01-14T17:22:52.778Z,4.06
2018-01-14T17:25:20.707Z,4.05
2018-01-14T17:27:48.658Z,4.12
2018-01-14T17:30:17.583Z,4.06
2018-01-14T17:32:48.888Z,4.01
2018-01-14T17:35:17.240Z,4.00
2018-01-14T17:37:45.910Z,3.99
2018-01-14T17:40:14.343Z,3.97
2018-01-14T17:42:42.339Z,3.87
2018-01-14T17:45:10.643Z,3.82
2018-01-14T17:47:38.217Z,3.80
2018-01-14T17:50:11.647Z,3.79
2018-01-14T17:52:39.109Z,3.86
2018-01-14T17:55:06.540Z,3.88
2018-01-14T17:57:33.957Z,3.79
2018-01-14T18:00:01.420Z,3.77
2018-01-14T18:02:28.836Z,3.80
2018-01-14T18:04:56.296Z,3.79
2018-01-14T18:07:24.003Z,3.78
2018-01-14T18:09:51.414Z,3.83
2018-01-14T18:12:18.840Z,3.79
2018-01-14T18:14:46.268Z,3.80
2018-01-14T18:17:34.432Z,3.77
2018-01-14T18:20:07.491Z,3.67
2018-01-14T18:22:34.908Z,3.70
2018-01-14T18:25:02.333Z,3.69
2018-01-14T18:27:30.820Z,3.61
2018-01-14T18:29:58.281Z,3.66
2018-01-14T18:32:25.763Z,3.75
2018-01-14T18:34:53.147Z,3.70
2018-01-14T18:37:20.587Z,3.69
2018-01-14T18:39:48.002Z,3.73
2018-01-14T18:42:15.420Z,3.66
2018-01-14T18:44:42.886Z,3.62
2018-01-14T18:47:10.335Z,3.57
2018-01-14T18:49:37.789Z,3.61
2018-01-14T18:52:05.242Z,3.64
2018-01-14T18:54:32.759Z,3.64
2018-01-14T18:57:00.182Z,3.63
2018-01-14T18:59:27.628Z,3.67
2018-01-14T19:01:55.065Z,3.67
2018-01-14T19:04:22.488Z,3.63
2018-01-14T19:06:50.839Z,3.57
2018-01-14T19:09:18.779Z,3.52
2018-01-14T19:11:46.305Z,3.52
2018-01-14T19:14:13.708Z,3.48
2018-01-14T19:16:41.129Z,3.55
2018-01-14T19:19:08.573Z,3.59
2018-01-14T19:21:35.984Z,3.55
2018-01-14T19:24:03.444Z,3.46
2018-01-14T19:26:30.864Z,3.46
2018-01-14T19:28:58.326Z,3.51
2018-01-14T19:31:25.805Z,3.51
2018-01-14T19:33:53.223Z,3.54
2018-01-14T19:36:21.614Z,3.53
2018-01-14T19:38:49.045Z,3.49
2018-01-14T19:41:17.391Z,3.45
2018-01-14T19:43:44.804Z,3.46
2018-01-14T19:46:15.676Z,3.46
2018-01-14T19:48:50.334Z,3.49
2018-01-14T19:51:17.777Z,3.45
2018-01-14T19:53:45.204Z,3.48
2018-01-14T19:56:12.629Z,3.50
2018-01-14T19:58:40.042Z,3.51
2018-01-14T20:01:07.465Z,3.51
2018-01-14T20:03:34.877Z,3.56
2018-01-14T20:06:02.340Z,3.51
2018-01-14T20:08:29.753Z,3.54
2018-01-14T20:10:57.169Z,3.56
2018-01-14T20:13:26.195Z,3.55
2018-01-14T20:29:40.881Z,3.50
2018-01-14T20:32:08.297Z,3.47
2018-01-14T20:34:35.717Z,3.51
2018-01-14T20:37:03.154Z,3.48
2018-01-14T20:39:30.569Z,3.48
2018-01-14T20:41:57.992Z,3.47
2018-01-14T20:44:28.219Z,3.45
2018-01-14T20:46:55.625Z,3.40
2018-01-14T20:49:23.048Z,3.43
2018-01-14T20:51:50.464Z,3.37
2018-01-14T20:54:17.888Z,3.34
2018-01-14T20:56:45.317Z,3.40
2018-01-14T20:59:12.736Z,3.36
2018-01-14T21:01:40.163Z,3.34
2018-01-14T21:04:07.580Z,3.25
2018-01-14T21:06:35.008Z,3.28
2018-01-14T21:09:02.429Z,3.28
2018-01-14T21:11:29.902Z,3.30
2018-01-14T21:13:57.317Z,3.31
2018-01-14T21:16:24.733Z,3.27
2018-01-14T21:18:52.161Z,3.31
2018-01-14T21:21:19.573Z,3.34
2018-01-14T21:23:46.993Z,3.32
2018-01-14T21:26:14.415Z,3.32
2018-01-14T21:28:41.833Z,3.23
2018-01-14T21:31:09.248Z,3.29
2018-01-14T21:33:36.665Z,3.27
2018-01-14T21:36:04.088Z,3.27
2018-01-14T21:38:31.527Z,3.26
2018-01-14T21:40:58.972Z,3.30
2018-01-14T21:43:26.394Z,3.31
2018-01-14T21:45:53.809Z,3.28
2018-01-14T21:48:21.230Z,3.28
2018-01-14T21:50:48.645Z,3.30
2018-01-14T21:53:16.093Z,3.35
2018-01-14T21:55:43.517Z,3.20
2018-01-14T21:58:10.933Z,3.23
2018-01-14T22:00:38.356Z,3.22
2018-01-14T22:03:05.776Z,3.19
2018-01-14T22:05:33.215Z,3.16
2018-01-14T22:08:00.628Z,3.19
2018-01-14T22:10:28.062Z,3.16
2018-01-14T22:12:55.473Z,3.20
2018-01-14T22:15:22.894Z,3.20
2018-01-14T22:17:50.313Z,3.17
2018-01-14T22:20:17.733Z,3.19
2018-01-14T22:22:45.408Z,3.22
2018-01-14T22:25:12.824Z,3.27
2018-01-14T22:27:40.256Z,3.25
2018-01-14T22:30:07.672Z,3.21
2018-01-14T22:32:35.094Z,3.27
2018-01-14T22:35:02.525Z,3.27
2018-01-14T22:37:29.941Z,3.28
2018-01-14T22:39:57.364Z,3.29
2018-01-14T22:42:24.782Z,3.22
2018-01-14T22:44:52.209Z,3.20
2018-01-14T22:47:19.625Z,3.22
2018-01-14T22:49:47.044Z,3.22
2018-01-14T22:52:14.473Z,3.27
2018-01-14T22:54:41.893Z,3.23
2018-01-14T22:57:09.321Z,3.28
2018-01-14T22:59:36.732Z,3.26
2018-01-14T23:02:04.159Z,3.22
2018-01-14T23:04:31.579Z,3.26
2018-01-14T23:06:59.005Z,3.29
2018-01-14T23:09:26.420Z,3.27
2018-01-14T23:11:53.851Z,3.29
2018-01-14T23:14:21.272Z,3.28
2018-01-14T23:16:48.682Z,3.27
2018-01-14T23:19:16.106Z,3.26
2018-01-14T23:21:43.528Z,3.30
2018-01-14T23:24:10.960Z,3.32
2018-01-14T23:26:38.380Z,3.32
2018-01-14T23:29:05.804Z,3.36
2018-01-14T23:31:33.232Z,3.35
2018-01-14T23:34:00.648Z,3.45
2018-01-14T23:36:28.073Z,3.38
2018-01-14T23:38:55.494Z,3.43
2018-01-14T23:41:22.912Z,3.42
2018-01-14T23:43:50.337Z,3.48
2018-01-14T23:46:17.760Z,3.52
2018-01-14T23:48:45.176Z,3.56
2018-01-14T23:51:12.612Z,3.60
2018-01-14T23:53:40.028Z,3.70
2018-01-14T23:56:07.444Z,3.82
2018-01-14T23:58:34.857Z,3.87
